EGKA

Shoreham Airport

Brighton, United Kingdom
METAR EGKA 221720Z 01010KT CAVOK 23/11 Q1015
Observed Flight Rules
May-22 @ 17:20 UTC (32 minutes ago) Visual Flight Rules
Wind Visibility Clouds
10° at 10 knots 10,000+ meters
  • Clear skies
Temperatures Readings
Current 23°C / 73°F
Dewpoint 11°C / 52°F
Humidity 47%
Altimeter 29.97" Hg
Pressure 1015 hPa
Elevation 2
METAR EGKA 221720Z 01010KT CAVOK 23/11 Q1015
Observed Flight Rules
May-22 @ 17:20 UTC
(32 minutes ago)
VFR
Wind Visibility
10° at 10 knots 10,000+ meters
Clouds
  • Clear skies
Temperature Dewpoint
23°C / 73°F 11°C / 52°F
Humidity Altimeter Pressure
47% 29.97" Hg 1015 hPa